Latest Coastal Weather Observations for Portland Harbour

IDV60701

Issued at 12:01 pm EST Monday 4 May 2015 (issued every 10 minutes, with the page automatically refreshed every 10 minutes)

About coastal observations | Map of coastal stations | Coastal observations for VIC | Marine services | Other Formats
Station Details ID: 090192 Name: PORTLAND NTC AWS Lat: -38.34 Lon: 141.61 Height: 0.0 m
Data from the previous 72 hours. | See also: Recent months for locations in Victoria
Date/Time
EST
Temp

°C
Wind Pressure Rain
since 9am
mm
Weather Cloud Vis
km
Sea
Height
m
Swell
Dir
 
Speed
knots
Gust
knots
hPa Trend Height
m
Period
s
Dir
04/12:00pm 17.2 N 11 17 1008.7 - - - - - - - - -
04/11:30am 16.5 N 12 16 1009.4 - - - - - - - - -
04/11:00am 15.7 N 16 21 1010.2 - - - - - - - - -
04/10:30am 14.9 N 13 16 1010.8 - - - - - - - - -
04/10:00am 14.3 N 12 17 1011.0 - - - - - - - - -
04/09:30am 14.0 N 12 14 1011.6 - - - - - - - - -
04/09:00am 13.0 N 11 13 1012.1 - - - - - - - - -
04/08:30am 12.5 N 9 12 1012.2 - - - - - - - - -
04/08:00am 12.1 N 10 13 1012.3 - - - - - - - - -
04/07:30am 11.6 N 9 11 1012.8 - - - - - - - - -
04/07:00am 11.0 N 8 10 1013.0 - - - - - - - - -
04/06:30am 11.0 N 6 8 1013.5 - - - - - - - - -
04/06:00am 10.8 N 9 10 1013.9 - - - - - - - - -
04/05:30am 10.9 NNW 7 8 1014.1 - - - - - - - - -
04/05:00am 11.5 N 11 13 1013.7 - - - - - - - - -
04/04:30am 11.7 N 5 7 1013.8 - - - - - - - - -
04/04:00am 11.6 N 5 6 1014.2 - - - - - - - - -
04/03:30am 11.5 NNW 4 7 1014.6 - - - - - - - - -
04/03:00am 11.9 N 6 8 1014.8 - - - - - - - - -
04/02:30am 12.2 N 8 10 1014.7 - - - - - - - - -
04/02:00am 12.2 N 6 7 1015.2 - - - - - - - - -
04/01:30am 12.5 NNE 5 6 1015.6 - - - - - - - - -
04/01:00am 12.7 NNE 4 5 1015.9 - - - - - - - - -
04/12:30am 12.9 NNE 5 6 1016.4 - - - - - - - - -
04/12:00am 13.1 NNE 5 8 1016.6 - - - - - - - - -
 
Date/Time
EST
Temp

°C
Wind Pressure Rain
since 9am
mm
Weather Cloud Vis
km
Sea
Height
m
Swell
Dir
 
Speed
knots
Gust
knots
hPa Trend Height
m
Period
s
Dir
03/11:30pm 13.1 N 3 5 1016.9 - - - - - - - - -
03/11:00pm 13.3 N 7 9 1017.2 - - - - - - - - -
03/10:30pm 12.8 NNE 7 8 1017.4 - - - - - - - - -
03/10:00pm 12.9 NNW 3 7 1017.5 - - - - - - - - -
03/09:30pm 11.2 SW 1 2 1017.5 - - - - - - - - -
03/09:00pm 11.5 SSW 2 3 1017.8 - - - - - - - - -
03/08:30pm 11.5 SW 1 2 1017.9 - - - - - - - - -
03/08:00pm 12.1 SW 2 3 1018.2 - - - - - - - - -
03/07:30pm 12.7 WSW 2 3 1017.9 - - - - - - - - -
03/07:00pm 13.2 S 1 2 1017.8 - - - - - - - - -
03/06:30pm 13.6 S 2 3 1018.0 - - - - - - - - -
03/06:00pm 13.9 SSW 2 3 1017.7 - - - - - - - - -
03/05:30pm 14.3 N 1 2 1017.6 - - - - - - - - -
03/05:00pm 14.4 W 3 4 1017.8 - - - - - - - - -
03/04:30pm 14.1 WSW 5 8 1018.2 - - - - - - - - -
03/04:00pm 13.7 WSW 7 9 1018.2 - - - - - - - - -
03/03:30pm 14.9 WSW 8 10 1018.1 - - - - - - - - -
03/03:00pm 14.7 WSW 8 10 1018.3 - - - - - - - - -
03/02:30pm 15.0 W 7 10 1018.3 - - - - - - - - -
03/02:00pm 14.5 W 8 12 1018.4 - - - - - - - - -
03/01:30pm 13.8 WSW 9 15 1018.7 - - - - - - - - -
03/01:00pm 14.4 WSW 10 14 1018.9 - - - - - - - - -
03/12:30pm 15.5 W 8 16 1019.0 - - - - - - - - -
03/12:00pm 15.5 WSW 7 10 1019.1 - - - - - - - - -
03/11:30am 14.9 WNW 6 12 1019.3 - - - - - - - - -
03/11:00am 14.2 WSW 7 11 1019.5 - - - - - - - - -
03/10:30am 15.1 WNW 6 10 1019.4 - - - - - - - - -
03/10:00am 14.3 NW 7 11 1019.6 - - - - - - - - -
03/09:30am 13.9 NW 6 10 1019.7 - - - - - - - - -
03/09:00am 13.7 NNW 5 7 1019.7 - - - - - - - - -
03/08:30am 13.3 NNW 5 7 1019.4 - - - - - - - - -
03/08:00am 12.5 W 3 4 1019.1 - - - - - - - - -
03/07:30am 12.5 NW 5 7 1018.7 - - - - - - - - -
03/07:00am 12.9 NNW 3 5 1018.4 - - - - - - - - -
03/06:30am 13.0 NW 1 2 1018.3 - - - - - - - - -
03/06:00am 13.2 NW 3 4 1018.1 - - - - - - - - -
03/05:30am 13.1 WNW 3 5 1017.7 - - - - - - - - -
03/05:00am 13.1 WNW 3 5 1017.4 - - - - - - - - -
03/04:30am 13.1 WNW 3 5 1017.2 - - - - - - - - -
03/04:00am 13.3 NW 6 9 1017.4 - - - - - - - - -
03/03:30am 13.4 NW 5 7 1017.4 - - - - - - - - -
03/03:00am 13.5 NW 6 9 1017.3 - - - - - - - - -
03/02:30am 13.2 WNW 4 5 1017.3 - - - - - - - - -
03/02:00am 13.2 WNW 6 9 1017.2 - - - - - - - - -
03/01:30am 13.3 WNW 5 7 1017.2 - - - - - - - - -
03/01:00am 13.4 NW 4 6 1017.0 - - - - - - - - -
03/12:30am 13.5 NNW 6 8 1017.0 - - - - - - - - -
03/12:00am 13.6 NNW 6 8 1017.1 - - - - - - - - -
 
Date/Time
EST
Temp

°C
Wind Pressure Rain
since 9am
mm
Weather Cloud Vis
km
Sea
Height
m
Swell
Dir
 
Speed
knots
Gust
knots
hPa Trend Height
m
Period
s
Dir
02/11:30pm 13.8 NW 6 10 1017.0 - - - - - - - - -
02/11:00pm 13.8 NW 7 10 1017.2 - - - - - - - - -
02/10:30pm 13.8 NW 6 8 1016.9 - - - - - - - - -
02/10:00pm 13.9 NW 3 5 1016.7 - - - - - - - - -
02/09:30pm 14.0 NW 5 7 1016.6 - - - - - - - - -
02/09:00pm 14.0 NW 5 7 1016.4 - - - - - - - - -
02/08:30pm 14.4 NW 7 11 1016.2 - - - - - - - - -
02/08:00pm 14.7 WNW 8 11 1016.0 - - - - - - - - -
02/07:30pm 14.8 WNW 10 17 1015.8 - - - - - - - - -
02/07:00pm 14.9 NW 9 14 1015.4 - - - - - - - - -
02/06:30pm 15.1 NW 9 13 1014.9 - - - - - - - - -
02/06:00pm 15.4 NW 10 15 1014.6 - - - - - - - - -
02/05:30pm 15.5 NW 9 15 1014.3 - - - - - - - - -
02/05:00pm 15.9 NW 10 16 1014.0 - - - - - - - - -
02/04:30pm 15.6 NW 11 17 1014.1 - - - - - - - - -
02/04:12pm 15.4 WNW 17 28 1013.9 - - - - - - - - -
02/04:00pm 16.8 WNW 12 20 1013.6 - - - - - - - - -
02/03:30pm 16.8 NW 12 20 1013.3 - - - - - - - - -
02/03:00pm 16.4 NW 11 17 1013.1 - - - - - - - - -
02/02:30pm 15.7 WNW 10 15 1013.5 - - - - - - - - -
02/02:00pm 16.2 WNW 15 24 1013.4 - - - - - - - - -
02/01:30pm 15.2 NW 11 19 1013.5 - - - - - - - - -
02/01:00pm 15.2 NW 12 19 1013.7 - - - - - - - - -
02/12:30pm 14.4 WNW 10 13 1013.9 - - - - - - - - -
02/12:00pm 13.9 NW 15 22 1014.5 - - - - - - - - -
02/11:30am 13.8 WNW 15 23 1014.6 - - - - - - - - -
02/11:04am 16.2 WNW 12 25 1014.3 - - - - - - - - -
02/11:00am 17.5 NW 9 15 1014.1 - - - - - - - - -
02/10:30am 17.2 NNW 15 24 1014.2 - - - - - - - - -
02/10:00am 16.6 NNW 16 22 1014.0 - - - - - - - - -
02/09:30am 16.1 NNW 12 17 1014.3 - - - - - - - - -
02/09:00am 15.7 NNW 13 16 1014.5 - - - - - - - - -
02/08:30am 15.4 NNW 16 21 1014.3 - - - - - - - - -
02/08:00am 15.4 NNW 12 17 1014.2 - - - - - - - - -
02/07:30am 16.5 NNW 10 14 1014.3 - - - - - - - - -
02/07:00am 17.3 NNW 9 14 1014.1 - - - - - - - - -
02/06:30am 16.9 N 9 11 1014.2 - - - - - - - - -
02/06:00am 16.6 N 6 8 1014.0 - - - - - - - - -
02/05:30am 16.9 N 10 12 1013.8 - - - - - - - - -
02/05:00am 17.1 N 11 13 1013.8 - - - - - - - - -
02/04:30am 17.3 N 11 13 1013.8 - - - - - - - - -
02/04:00am 17.4 N 11 13 1014.3 - - - - - - - - -
02/03:30am 17.6 N 11 15 1014.6 - - - - - - - - -
02/03:00am 17.5 N 11 14 1014.7 - - - - - - - - -
02/02:30am 17.3 N 10 12 1014.9 - - - - - - - - -
02/02:00am 17.4 N 11 14 1015.2 - - - - - - - - -
02/01:30am 17.4 N 13 15 1015.2 - - - - - - - - -
02/01:00am 17.0 N 10 12 1015.4 - - - - - - - - -
02/12:30am 17.1 N 11 13 1015.8 - - - - - - - - -
02/12:00am 16.8 N 9 11 1016.1 - - - - - - - - -
 
Date/Time
EST
Temp

°C
Wind Pressure Rain
since 9am
mm
Weather Cloud Vis
km
Sea
Height
m
Swell
Dir
 
Speed
knots
Gust
knots
hPa Trend Height
m
Period
s
Dir
01/11:30pm 16.5 N 9 11 1016.6 - - - - - - - - -
01/11:00pm 16.8 N 9 11 1017.3 - - - - - - - - -
01/10:30pm 16.9 N 8 11 1017.7 - - - - - - - - -
01/10:00pm 16.6 N 5 7 1017.6 - - - - - - - - -
01/09:30pm 16.4 NNE 6 8 1018.0 - - - - - - - - -
01/09:00pm 16.6 NE 8 9 1017.9 - - - - - - - - -
01/08:30pm 16.4 NNE 8 9 1018.3 - - - - - - - - -
01/08:00pm 16.5 NNE 6 7 1018.4 - - - - - - - - -
01/07:30pm 16.5 NE 3 6 1018.7 - - - - - - - - -
01/07:00pm 16.4 N 3 4 1019.1 - - - - - - - - -
01/06:30pm 16.9 N 3 5 1019.0 - - - - - - - - -
01/06:00pm 17.2 NNE 4 8 1018.8 - - - - - - - - -
01/05:30pm 17.7 NE 8 9 1019.1 - - - - - - - - -
01/05:00pm 18.6 NNE 7 8 1019.2 - - - - - - - - -
01/04:30pm 19.3 N 7 9 1020.1 - - - - - - - - -
01/04:00pm 19.6 N 12 16 1020.1 - - - - - - - - -
01/03:30pm 19.9 N 12 15 1020.1 - - - - - - - - -
01/03:00pm 20.3 N 10 14 1020.5 - - - - - - - - -
01/02:30pm 19.6 N 12 16 1020.5 - - - - - - - - -
01/02:00pm 19.8 N 13 15 1020.7 - - - - - - - - -
01/01:30pm 18.7 NNE 9 12 1020.8 - - - - - - - - -
01/01:00pm 18.6 NNE 9 10 1021.5 - - - - - - - - -
01/12:30pm 18.5 N 11 14 1022.3 - - - - - - - - -

Other Formats:

Comma delimited format used in spreadsheet applications
http://www.bom.gov.au/fwo/IDV60701/IDV60701.95826.axf

JavaScript Object Notation format (JSON) in row-major order
http://www.bom.gov.au/fwo/IDV60701/IDV60701.95826.json